Concerto — JJ3855 — position and weather

sailwx.info

Track history (hours):
 
Tides and Currents Weather Stations Pressure Air Temp Water Temp Dewpoint Dewpoint Depression Visibility Wind Speed Wind Dir Waves Ship Positions

Concerto

Last reported at 2015-Mar-27 11:33 UTC. Time now 2015-Mar-27 13:18 UTC.
Position N 34°38' E 135°11'.

Length 74 m; draft 3 m.

Type: Passenger vessel. MMSI: 431000448.

Date/timePositionNaut miles runAvg speedWind from/ knotsBaromVisibWave heightAir tempDewpointWater temp
2015-Mar-27 11:33N 34°38' E 135°11'2 2.1
2015-Mar-27 10:33N 34°40' E 135°11'1 1.1
2015-Mar-27 09:33N 34°39' E 135°11'1 0.8
2015-Mar-27 08:33N 34°39' E 135°11'2 2.2
2015-Mar-27 07:33N 34°41' E 135°11'3 3.2
2015-Mar-27 06:33N 34°38' E 135°09'3 3.1
2015-Mar-27 05:30N 34°41' E 135°11'1 0.7
2015-Mar-27 04:33N 34°40' E 135°12'3 2.9
2015-Mar-27 03:33N 34°38' E 135°09'3 3.2
2015-Mar-27 02:33N 34°41' E 135°11'3 0.2
2015-Mar-26 11:33N 34°38' E 135°11'2 1.5
2015-Mar-26 10:33N 34°40' E 135°11'0 0.4
2015-Mar-26 09:33N 34°39' E 135°11'1 0.8
2015-Mar-26 08:33N 34°39' E 135°11'2 2.2
2015-Mar-26 07:33N 34°41' E 135°11'3 3.2
2015-Mar-26 06:33N 34°38' E 135°09'3 3.0
2015-Mar-26 05:28N 34°41' E 135°11'0 0.5
2015-Mar-26 04:33N 34°40' E 135°11'3 2.6
2015-Mar-26 03:33N 34°38' E 135°10'3 2.8
2015-Mar-26 02:33N 34°41' E 135°11'2 0.2
2015-Mar-25 11:33N 34°38' E 135°11'1 1.2
2015-Mar-25 10:33N 34°40' E 135°11'1 0.6
2015-Mar-25 09:34N 34°39' E 135°11'1 0.8
2015-Mar-25 08:33N 34°39' E 135°11'2 2.2
2015-Mar-25 07:32N 34°41' E 135°11'3 3.2
2015-Mar-25 06:33N 34°38' E 135°10'3 3.0
2015-Mar-25 05:29N 34°41' E 135°11'1 0.7
2015-Mar-25 04:33N 34°40' E 135°12'3 2.6
2015-Mar-25 03:33N 34°38' E 135°10'3 3.0
2015-Mar-25 02:33N 34°41' E 135°11'3 0.2
2015-Mar-24 11:33N 34°38' E 135°11'2 1.8
2015-Mar-24 10:33N 34°40' E 135°11'0 0.4
2015-Mar-24 09:33N 34°39' E 135°11'1 1.2
2015-Mar-24 08:33N 34°38' E 135°11'2 2.3
2015-Mar-24 07:30N 34°41' E 135°11'3 3.7
2015-Mar-24 06:33N 34°38' E 135°09'3 3.4
2015-Mar-24 05:31N 34°41' E 135°11'1 0.6
2015-Mar-24 04:33N 34°40' E 135°11'3 2.9
2015-Mar-24 03:33N 34°38' E 135°10'3 3.2
2015-Mar-24 02:32N 34°41' E 135°11'0 0.0
2015-Mar-24 01:33N 34°41' E 135°11'0 0.0
2015-Mar-24 00:33N 34°41' E 135°11'0 0.0
2015-Mar-23 23:33N 34°41' E 135°11'0 0.0
2015-Mar-23 22:33N 34°41' E 135°11'0 0.0
2015-Mar-23 21:33N 34°41' E 135°11'0 0.0
2015-Mar-23 20:33N 34°41' E 135°11'0 0.0
2015-Mar-23 19:33N 34°41' E 135°11'0 0.0
2015-Mar-23 18:33N 34°41' E 135°11'0 0.0
2015-Mar-23 17:33N 34°41' E 135°11'0 0.0
2015-Mar-23 16:33N 34°41' E 135°11'0 0.0
2015-Mar-23 15:33N 34°41' E 135°11'0 0.0
2015-Mar-23 14:33N 34°41' E 135°11'0 0.0
2015-Mar-23 13:33N 34°41' E 135°11'0 0.0
2015-Mar-23 12:33N 34°41' E 135°11'3 3.0
2015-Mar-23 11:33N 34°38' E 135°10'2 2.0
2015-Mar-23 10:33N 34°40' E 135°11'1 0.7
2015-Mar-23 09:33N 34°39' E 135°11'1 0.7
2015-Mar-23 08:33N 34°38' E 135°11'2 2.4
2015-Mar-23 07:33N 34°41' E 135°11'4 3.5
2015-Mar-23 06:33N 34°38' E 135°09'4 3.4
2015-Mar-23 05:30N 34°41' E 135°11'1 0.8
2015-Mar-23 04:33N 34°40' E 135°12'3 3.0
2015-Mar-23 03:33N 34°38' E 135°10'3 3.4
2015-Mar-23 02:33N 34°41' E 135°11'3 0.2
2015-Mar-22 11:33N 34°38' E 135°10'2 2.0
2015-Mar-22 10:33N 34°40' E 135°11'1 1.0
2015-Mar-22 09:33N 34°39' E 135°11'0 0.3
2015-Mar-22 08:33N 34°39' E 135°11'2 2.1
2015-Mar-22 07:33N 34°41' E 135°11'3 2.9
2015-Mar-22 06:33N 34°38' E 135°10'3 2.9
2015-Mar-22 05:33N 34°41' E 135°11'0 0.3
2015-Mar-22 04:33N 34°41' E 135°11'3 3.3
2015-Mar-22 03:33N 34°38' E 135°09'3 0.2
2015-Mar-21 13:07N 34°41' E 135°11'0 0.0
2015-Mar-21 12:33N 34°41' E 135°11'3 3.0
2015-Mar-21 11:33N 34°38' E 135°10'2 2.1
2015-Mar-21 10:33N 34°40' E 135°11'0 0.0
2015-Mar-21 09:33N 34°40' E 135°11'1 1.1
2015-Mar-21 08:33N 34°39' E 135°11'2 2.1
2015-Mar-21 07:33N 34°41' E 135°11'3 2.9
2015-Mar-21 06:33N 34°38' E 135°09'3 2.8
2015-Mar-21 05:30N 34°41' E 135°11'0 0.1
2015-Mar-21 04:33N 34°41' E 135°11'3 3.2
2015-Mar-21 03:33N 34°38' E 135°10'3 3.3
2015-Mar-21 02:33N 34°41' E 135°11'3 0.2
2015-Mar-20 11:33N 34°38' E 135°10'2 2.5
2015-Mar-20 10:33N 34°40' E 135°11'0 0.2
2015-Mar-20 09:33N 34°40' E 135°12'1 1.4
2015-Mar-20 08:33N 34°38' E 135°11'2 2.4
2015-Mar-20 07:33N 34°41' E 135°11'3 3.0
2015-Mar-20 06:33N 34°38' E 135°10'3 2.9
2015-Mar-20 05:29N 34°41' E 135°11'1 0.6
2015-Mar-20 04:33N 34°40' E 135°11'3 3.1
2015-Mar-20 03:33N 34°38' E 135°09'3 3.3
2015-Mar-20 02:33N 34°41' E 135°11'3 0.2
2015-Mar-19 11:33N 34°38' E 135°10'3 2.5
2015-Mar-19 10:33N 34°40' E 135°11'1 0.9
2015-Mar-19 09:33N 34°39' E 135°11'1 0.7
2015-Mar-19 08:33N 34°39' E 135°11'2 2.0
2015-Mar-19 07:26N 34°41' E 135°11'4 4.0
2015-Mar-19 06:33N 34°38' E 135°09'4 3.1
2015-Mar-19 05:24N 34°41' E 135°11'1 0.8
2015-Mar-19 04:33N 34°40' E 135°12'2 2.5
2015-Mar-19 03:33N 34°38' E 135°10'1 0.1
2015-Mar-18 11:33N 34°38' E 135°11'2 1.6
2015-Mar-18 10:33N 34°40' E 135°11'1 0.5
2015-Mar-18 09:33N 34°39' E 135°11'0 0.3
2015-Mar-18 08:33N 34°39' E 135°11'2 1.5
2015-Mar-18 07:26N 34°41' E 135°11'3 3.7
2015-Mar-18 06:33N 34°38' E 135°09'3 3.2
2015-Mar-18 05:31N 34°41' E 135°11'0 0.4
2015-Mar-18 04:33N 34°41' E 135°11'3 2.5
2015-Mar-18 03:33N 34°38' E 135°10'3 2.5
2015-Mar-18 02:31N 34°41' E 135°11'0 0.0
2015-Mar-17 12:19N 34°41' E 135°11'  
Track history (hours):
 
Tides and Currents Weather Stations Pressure Air Temp Water Temp Dewpoint Dewpoint Depression Visibility Wind Speed Wind Dir Waves Ship Positions

Concerto

Last reported at 2015-Mar-27 11:33 UTC. Time now 2015-Mar-27 13:18 UTC.
Position N 34°38' E 135°11'.

Length 74 m; draft 3 m.

Type: Passenger vessel. MMSI: 431000448.

Date/timePositionNaut miles runAvg speedWind from/ knotsBaromVisibWave heightAir tempDewpointWater temp
2015-Mar-27 11:33N 34°38' E 135°11'2 2.1
2015-Mar-27 10:33N 34°40' E 135°11'1 1.1
2015-Mar-27 09:33N 34°39' E 135°11'1 0.8
2015-Mar-27 08:33N 34°39' E 135°11'2 2.2
2015-Mar-27 07:33N 34°41' E 135°11'3 3.2
2015-Mar-27 06:33N 34°38' E 135°09'3 3.1
2015-Mar-27 05:30N 34°41' E 135°11'1 0.7
2015-Mar-27 04:33N 34°40' E 135°12'3 2.9
2015-Mar-27 03:33N 34°38' E 135°09'3 3.2
2015-Mar-27 02:33N 34°41' E 135°11'3 0.2
2015-Mar-26 11:33N 34°38' E 135°11'2 1.5
2015-Mar-26 10:33N 34°40' E 135°11'0 0.4
2015-Mar-26 09:33N 34°39' E 135°11'1 0.8
2015-Mar-26 08:33N 34°39' E 135°11'2 2.2
2015-Mar-26 07:33N 34°41' E 135°11'3 3.2
2015-Mar-26 06:33N 34°38' E 135°09'3 3.0
2015-Mar-26 05:28N 34°41' E 135°11'0 0.5
2015-Mar-26 04:33N 34°40' E 135°11'3 2.6
2015-Mar-26 03:33N 34°38' E 135°10'3 2.8
2015-Mar-26 02:33N 34°41' E 135°11'2 0.2
2015-Mar-25 11:33N 34°38' E 135°11'1 1.2
2015-Mar-25 10:33N 34°40' E 135°11'1 0.6
2015-Mar-25 09:34N 34°39' E 135°11'1 0.8
2015-Mar-25 08:33N 34°39' E 135°11'2 2.2
2015-Mar-25 07:32N 34°41' E 135°11'3 3.2
2015-Mar-25 06:33N 34°38' E 135°10'3 3.0
2015-Mar-25 05:29N 34°41' E 135°11'1 0.7
2015-Mar-25 04:33N 34°40' E 135°12'3 2.6
2015-Mar-25 03:33N 34°38' E 135°10'3 3.0
2015-Mar-25 02:33N 34°41' E 135°11'3 0.2
2015-Mar-24 11:33N 34°38' E 135°11'2 1.8
2015-Mar-24 10:33N 34°40' E 135°11'0 0.4
2015-Mar-24 09:33N 34°39' E 135°11'1 1.2
2015-Mar-24 08:33N 34°38' E 135°11'2 2.3
2015-Mar-24 07:30N 34°41' E 135°11'3 3.7
2015-Mar-24 06:33N 34°38' E 135°09'3 3.4
2015-Mar-24 05:31N 34°41' E 135°11'1 0.6
2015-Mar-24 04:33N 34°40' E 135°11'3 2.9
2015-Mar-24 03:33N 34°38' E 135°10'3 3.2
2015-Mar-24 02:32N 34°41' E 135°11'0 0.0
2015-Mar-24 01:33N 34°41' E 135°11'0 0.0
2015-Mar-24 00:33N 34°41' E 135°11'0 0.0
2015-Mar-23 23:33N 34°41' E 135°11'0 0.0
2015-Mar-23 22:33N 34°41' E 135°11'0 0.0
2015-Mar-23 21:33N 34°41' E 135°11'0 0.0
2015-Mar-23 20:33N 34°41' E 135°11'0 0.0
2015-Mar-23 19:33N 34°41' E 135°11'0 0.0
2015-Mar-23 18:33N 34°41' E 135°11'0 0.0
2015-Mar-23 17:33N 34°41' E 135°11'0 0.0
2015-Mar-23 16:33N 34°41' E 135°11'0 0.0
2015-Mar-23 15:33N 34°41' E 135°11'0 0.0
2015-Mar-23 14:33N 34°41' E 135°11'0 0.0
2015-Mar-23 13:33N 34°41' E 135°11'0 0.0
2015-Mar-23 12:33N 34°41' E 135°11'3 3.0
2015-Mar-23 11:33N 34°38' E 135°10'2 2.0
2015-Mar-23 10:33N 34°40' E 135°11'1 0.7
2015-Mar-23 09:33N 34°39' E 135°11'1 0.7
2015-Mar-23 08:33N 34°38' E 135°11'2 2.4
2015-Mar-23 07:33N 34°41' E 135°11'4 3.5
2015-Mar-23 06:33N 34°38' E 135°09'4 3.4
2015-Mar-23 05:30N 34°41' E 135°11'1 0.8
2015-Mar-23 04:33N 34°40' E 135°12'3 3.0
2015-Mar-23 03:33N 34°38' E 135°10'3 3.4
2015-Mar-23 02:33N 34°41' E 135°11'3 0.2
2015-Mar-22 11:33N 34°38' E 135°10'2 2.0
2015-Mar-22 10:33N 34°40' E 135°11'1 1.0
2015-Mar-22 09:33N 34°39' E 135°11'0 0.3
2015-Mar-22 08:33N 34°39' E 135°11'2 2.1
2015-Mar-22 07:33N 34°41' E 135°11'3 2.9
2015-Mar-22 06:33N 34°38' E 135°10'3 2.9
2015-Mar-22 05:33N 34°41' E 135°11'0 0.3
2015-Mar-22 04:33N 34°41' E 135°11'3 3.3
2015-Mar-22 03:33N 34°38' E 135°09'3 0.2
2015-Mar-21 13:07N 34°41' E 135°11'0 0.0
2015-Mar-21 12:33N 34°41' E 135°11'3 3.0
2015-Mar-21 11:33N 34°38' E 135°10'2 2.1
2015-Mar-21 10:33N 34°40' E 135°11'0 0.0
2015-Mar-21 09:33N 34°40' E 135°11'1 1.1
2015-Mar-21 08:33N 34°39' E 135°11'2 2.1
2015-Mar-21 07:33N 34°41' E 135°11'3 2.9
2015-Mar-21 06:33N 34°38' E 135°09'3 2.8
2015-Mar-21 05:30N 34°41' E 135°11'0 0.1
2015-Mar-21 04:33N 34°41' E 135°11'3 3.2
2015-Mar-21 03:33N 34°38' E 135°10'3 3.3
2015-Mar-21 02:33N 34°41' E 135°11'3 0.2
2015-Mar-20 11:33N 34°38' E 135°10'2 2.5
2015-Mar-20 10:33N 34°40' E 135°11'0 0.2
2015-Mar-20 09:33N 34°40' E 135°12'1 1.4
2015-Mar-20 08:33N 34°38' E 135°11'2 2.4
2015-Mar-20 07:33N 34°41' E 135°11'3 3.0
2015-Mar-20 06:33N 34°38' E 135°10'3 2.9
2015-Mar-20 05:29N 34°41' E 135°11'1 0.6
2015-Mar-20 04:33N 34°40' E 135°11'3 3.1
2015-Mar-20 03:33N 34°38' E 135°09'3 3.3
2015-Mar-20 02:33N 34°41' E 135°11'3 0.2
2015-Mar-19 11:33N 34°38' E 135°10'3 2.5
2015-Mar-19 10:33N 34°40' E 135°11'1 0.9
2015-Mar-19 09:33N 34°39' E 135°11'1 0.7
2015-Mar-19 08:33N 34°39' E 135°11'2 2.0
2015-Mar-19 07:26N 34°41' E 135°11'4 4.0
2015-Mar-19 06:33N 34°38' E 135°09'4 3.1
2015-Mar-19 05:24N 34°41' E 135°11'1 0.8
2015-Mar-19 04:33N 34°40' E 135°12'2 2.5
2015-Mar-19 03:33N 34°38' E 135°10'1 0.1
2015-Mar-18 11:33N 34°38' E 135°11'2 1.6
2015-Mar-18 10:33N 34°40' E 135°11'1 0.5
2015-Mar-18 09:33N 34°39' E 135°11'0 0.3
2015-Mar-18 08:33N 34°39' E 135°11'2 1.5
2015-Mar-18 07:26N 34°41' E 135°11'3 3.7
2015-Mar-18 06:33N 34°38' E 135°09'3 3.2
2015-Mar-18 05:31N 34°41' E 135°11'0 0.4
2015-Mar-18 04:33N 34°41' E 135°11'3 2.5
2015-Mar-18 03:33N 34°38' E 135°10'3 2.5
2015-Mar-18 02:31N 34°41' E 135°11'0 0.0
2015-Mar-17 12:19N 34°41' E 135°11'  

Dump ship's entire track history